Pagrindinis puslapis
METAR-TAF:

METAR-TAF

Oro uostai :

Sindal, Danija

platuma: 57-30N, ilguma: 010-13E, Aukštis: 28 m

Dabartinis oras

Ataskaita buvo paskelbta 38 minutes, ne 11:50 UTC
Vėjas 17 kt iš Pietų/Pietvakarių
Temperatūra 4°C
Drėgmė 93%
Slėgis 997 hPa
Matomumas 10 km arba daugiau
Mažai debesys ne aukštis 1100 ft
Išsisklaidę debesys ne aukštis 2600 ft

METAR: EKSN 161150Z 20017KT 9999 FEW011 SCT026 04/03 Q0997

Laikas: 13:28 (12:28 UTC)

Prognozė

Ataskaita buvo paskelbta 3 valandos ir 28 minutes, ne 09:00 UTC
Prognozė galioja nuo 16 metu 09 UTC su 16 metu 14 UTC
Vėjas 15 kt iš Pietų
Matomumas: 9000 m
Su prošvaistėmis ne aukštis 1500 ft
Laikinai
nuo 16 metu 09 UTC su 16 metu 14 UTC
Matomumas: 4000 m
Su prošvaistėmis ne aukštis 800 ft
Su prošvaistėmis ne aukštis 2000 ft, Liūtiniai kamuoliniai debesys.
lietus

TAF: EKSN 160900Z 1609/1614 19015KT 9000 BKN015 TEMPO 1609/1614 4000 SHRA BKN008 BKN020CB

Orai ataskaitas ir orų prognozės (METAR, TAF).

turimą stotys yra geltonos ir raudonos taškus žemėlapyje.

Perkelti pele per norėdami pamatyti stoties vardą.

Tada spustelėkite, norėdami matyti oro stebėjimo ir prognozės.

Norėdami pakeisti žemėlapį: spustelėkite ant žalios mygtukų su juodo kryžiaus žemyn,; žalią mygtuką su brūkšneliu, jei norite nutolinti; arba žalių rodyklių gretimoms žemėlapius.


METAR-TAF: